sensor_id;sensor_type;location;lat;lon;timestamp;pressure;altitude;pressure_sealevel;temperature;humidity
55490;BME280;44029;52.956;4.772;2022-07-05T00:02:16;102157.94;;;17.95;100.00
55490;BME280;44029;52.956;4.772;2022-07-05T00:04:42;102166.22;;;17.90;100.00
55490;BME280;44029;52.956;4.772;2022-07-05T00:07:08;102164.06;;;17.98;100.00
55490;BME280;44029;52.956;4.772;2022-07-05T00:09:56;102160.16;;;17.93;100.00
55490;BME280;44029;52.956;4.772;2022-07-05T00:12:31;102156.56;;;17.98;100.00
55490;BME280;44029;52.956;4.772;2022-07-05T00:14:58;102163.44;;;17.90;100.00
55490;BME280;44029;52.956;4.772;2022-07-05T00:17:24;102161.72;;;17.84;100.00
55490;BME280;44029;52.956;4.772;2022-07-05T00:19:49;102161.75;;;17.89;100.00
55490;BME280;44029;52.956;4.772;2022-07-05T00:22:15;102157.34;;;17.88;100.00
55490;BME280;44029;52.956;4.772;2022-07-05T00:24:40;102158.66;;;17.81;100.00
55490;BME280;44029;52.956;4.772;2022-07-05T00:27:06;102164.75;;;17.83;100.00
55490;BME280;44029;52.956;4.772;2022-07-05T00:29:31;102160.03;;;17.83;100.00
55490;BME280;44029;52.956;4.772;2022-07-05T00:31:56;102159.03;;;17.94;100.00
55490;BME280;44029;52.956;4.772;2022-07-05T00:34:22;102154.84;;;17.87;100.00
55490;BME280;44029;52.956;4.772;2022-07-05T00:36:47;102155.69;;;17.92;100.00
55490;BME280;44029;52.956;4.772;2022-07-05T00:39:13;102152.25;;;17.80;100.00
55490;BME280;44029;52.956;4.772;2022-07-05T00:41:38;102155.88;;;17.81;100.00
55490;BME280;44029;52.956;4.772;2022-07-05T00:44:06;102153.78;;;17.98;100.00
55490;BME280;44029;52.956;4.772;2022-07-05T00:46:33;102157.66;;;17.97;100.00
55490;BME280;44029;52.956;4.772;2022-07-05T00:48:59;102155.09;;;17.85;100.00
55490;BME280;44029;52.956;4.772;2022-07-05T00:51:26;102156.47;;;17.88;100.00
55490;BME280;44029;52.956;4.772;2022-07-05T00:53:54;102153.09;;;17.81;100.00
55490;BME280;44029;52.956;4.772;2022-07-05T00:56:20;102155.09;;;17.85;100.00
55490;BME280;44029;52.956;4.772;2022-07-05T00:58:48;102149.72;;;17.73;100.00
55490;BME280;44029;52.956;4.772;2022-07-05T01:01:15;102148.88;;;17.73;100.00
55490;BME280;44029;52.956;4.772;2022-07-05T01:03:41;102153.88;;;17.76;100.00
55490;BME280;44029;52.956;4.772;2022-07-05T01:06:09;102146.41;;;17.76;100.00
55490;BME280;44029;52.956;4.772;2022-07-05T01:08:37;102151.69;;;17.78;100.00
55490;BME280;44029;52.956;4.772;2022-07-05T01:11:04;102148.31;;;17.71;100.00
55490;BME280;44029;52.956;4.772;2022-07-05T01:13:30;102163.28;;;17.70;100.00
55490;BME280;44029;52.956;4.772;2022-07-05T01:15:56;102149.44;;;17.70;100.00
55490;BME280;44029;52.956;4.772;2022-07-05T01:18:22;102149.94;;;17.67;100.00
55490;BME280;44029;52.956;4.772;2022-07-05T01:20:48;102148.34;;;17.76;100.00
55490;BME280;44029;52.956;4.772;2022-07-05T01:23:15;102154.13;;;17.69;100.00
55490;BME280;44029;52.956;4.772;2022-07-05T01:25:41;102147.69;;;17.58;100.00
55490;BME280;44029;52.956;4.772;2022-07-05T01:28:06;102154.97;;;17.70;100.00
55490;BME280;44029;52.956;4.772;2022-07-05T01:30:34;102155.00;;;17.75;100.00
55490;BME280;44029;52.956;4.772;2022-07-05T01:33:00;102153.53;;;17.67;100.00
55490;BME280;44029;52.956;4.772;2022-07-05T01:35:26;102157.75;;;17.70;100.00
55490;BME280;44029;52.956;4.772;2022-07-05T01:37:52;102151.06;;;17.71;100.00
55490;BME280;44029;52.956;4.772;2022-07-05T01:40:19;102143.06;;;17.69;100.00
55490;BME280;44029;52.956;4.772;2022-07-05T01:42:45;102148.84;;;17.68;100.00
55490;BME280;44029;52.956;4.772;2022-07-05T01:45:11;102153.78;;;17.61;100.00
55490;BME280;44029;52.956;4.772;2022-07-05T01:47:40;102151.53;;;17.57;100.00
55490;BME280;44029;52.956;4.772;2022-07-05T01:50:12;102146.88;;;17.63;100.00
55490;BME280;44029;52.956;4.772;2022-07-05T01:52:42;102147.13;;;17.62;100.00
55490;BME280;44029;52.956;4.772;2022-07-05T01:55:09;102140.09;;;17.44;100.00
55490;BME280;44029;52.956;4.772;2022-07-05T01:57:34;102147.28;;;17.45;100.00
55490;BME280;44029;52.956;4.772;2022-07-05T01:59:59;102141.47;;;17.46;100.00
55490;BME280;44029;52.956;4.772;2022-07-05T02:02:25;102144.25;;;17.46;100.00
55490;BME280;44029;52.956;4.772;2022-07-05T02:04:50;102142.84;;;17.44;100.00
55490;BME280;44029;52.956;4.772;2022-07-05T02:07:15;102141.44;;;17.41;100.00
55490;BME280;44029;52.956;4.772;2022-07-05T02:09:41;102149.22;;;17.44;100.00
55490;BME280;44029;52.956;4.772;2022-07-05T02:12:07;102144.78;;;17.43;100.00
55490;BME280;44029;52.956;4.772;2022-07-05T02:14:32;102144.44;;;17.34;100.00
55490;BME280;44029;52.956;4.772;2022-07-05T02:16:58;102137.56;;;17.42;100.00
55490;BME280;44029;52.956;4.772;2022-07-05T02:19:24;102141.47;;;17.46;100.00
55490;BME280;44029;52.956;4.772;2022-07-05T02:21:49;102142.84;;;17.44;100.00
55490;BME280;44029;52.956;4.772;2022-07-05T02:24:14;102146.41;;;17.39;100.00
55490;BME280;44029;52.956;4.772;2022-07-05T02:26:40;102150.00;;;17.39;100.00
55490;BME280;44029;52.956;4.772;2022-07-05T02:29:05;102140.25;;;17.32;100.00
55490;BME280;44029;52.956;4.772;2022-07-05T02:31:31;102146.91;;;17.31;100.00
55490;BME280;44029;52.956;4.772;2022-07-05T02:33:56;102147.47;;;17.33;100.00
55490;BME280;44029;52.956;4.772;2022-07-05T02:36:23;102138.97;;;17.45;100.00
55490;BME280;44029;52.956;4.772;2022-07-05T02:38:49;102143.63;;;17.39;100.00
55490;BME280;44029;52.956;4.772;2022-07-05T02:41:14;102144.44;;;17.34;100.00
55490;BME280;44029;52.956;4.772;2022-07-05T02:43:40;102138.41;;;17.43;100.00
55490;BME280;44029;52.956;4.772;2022-07-05T02:46:07;102153.38;;;17.42;100.00
55490;BME280;44029;52.956;4.772;2022-07-05T02:48:34;102158.88;;;17.36;100.00
55490;BME280;44029;52.956;4.772;2022-07-05T02:51:00;102148.56;;;17.32;100.00
55490;BME280;44029;52.956;4.772;2022-07-05T02:53:26;102156.88;;;17.32;100.00
55490;BME280;44029;52.956;4.772;2022-07-05T02:55:51;102156.88;;;17.32;100.00
55490;BME280;44029;52.956;4.772;2022-07-05T02:58:17;102153.00;;;17.33;100.00
55490;BME280;44029;52.956;4.772;2022-07-05T03:00:46;102156.34;;;17.35;100.00
55490;BME280;44029;52.956;4.772;2022-07-05T03:03:12;102151.06;;;17.33;100.00
55490;BME280;44029;52.956;4.772;2022-07-05T03:05:38;102153.78;;;17.28;100.00
55490;BME280;44029;52.956;4.772;2022-07-05T03:08:03;102161.00;;;17.29;100.00
55490;BME280;44029;52.956;4.772;2022-07-05T03:10:29;102169.06;;;17.31;100.00
55490;BME280;44029;52.956;4.772;2022-07-05T03:12:54;102160.78;;;17.36;100.00
55490;BME280;44029;52.956;4.772;2022-07-05T03:15:20;102170.16;;;17.30;100.00
55490;BME280;44029;52.956;4.772;2022-07-05T03:17:45;102167.88;;;17.27;100.00
55490;BME280;44029;52.956;4.772;2022-07-05T03:20:11;102157.72;;;17.32;100.00
55490;BME280;44029;52.956;4.772;2022-07-05T03:22:36;102158.88;;;17.36;100.00
55490;BME280;44029;52.956;4.772;2022-07-05T03:25:01;102160.75;;;17.31;100.00
55490;BME280;44029;52.956;4.772;2022-07-05T03:27:27;102167.13;;;17.31;100.00
55490;BME280;44029;52.956;4.772;2022-07-05T03:29:53;102170.41;;;17.28;100.00
55490;BME280;44029;52.956;4.772;2022-07-05T03:32:18;102167.63;;;17.28;100.00
55490;BME280;44029;52.956;4.772;2022-07-05T03:34:44;102171.53;;;17.27;100.00
55490;BME280;44029;52.956;4.772;2022-07-05T03:37:09;102165.72;;;17.29;100.00
55490;BME280;44029;52.956;4.772;2022-07-05T03:39:34;102175.66;;;17.57;100.00
55490;BME280;44029;52.956;4.772;2022-07-05T03:42:00;102165.97;;;17.92;100.00
55490;BME280;44029;52.956;4.772;2022-07-05T03:44:25;102171.97;;;18.21;100.00
55490;BME280;44029;52.956;4.772;2022-07-05T03:46:52;102163.81;;;18.62;100.00
55490;BME280;44029;52.956;4.772;2022-07-05T03:49:17;102155.31;;;19.00;100.00
55490;BME280;44029;52.956;4.772;2022-07-05T03:51:42;102152.00;;;19.03;100.00
55490;BME280;44029;52.956;4.772;2022-07-05T03:54:07;102149.78;;;19.66;100.00
55490;BME280;44029;52.956;4.772;2022-07-05T03:56:33;102146.13;;;20.02;100.00
55490;BME280;44029;52.956;4.772;2022-07-05T03:58:58;102145.38;;;20.56;100.00
55490;BME280;44029;52.956;4.772;2022-07-05T04:01:24;102152.66;;;20.47;100.00
55490;BME280;44029;52.956;4.772;2022-07-05T04:03:49;102152.28;;;19.22;100.00
55490;BME280;44029;52.956;4.772;2022-07-05T04:06:14;102156.41;;;18.88;100.00
55490;BME280;44029;52.956;4.772;2022-07-05T04:08:40;102156.75;;;19.64;100.00
55490;BME280;44029;52.956;4.772;2022-07-05T04:11:05;102150.38;;;20.54;100.00
55490;BME280;44029;52.956;4.772;2022-07-05T04:13:31;102147.75;;;21.23;100.00
55490;BME280;44029;52.956;4.772;2022-07-05T04:15:56;102154.63;;;20.96;100.00
55490;BME280;44029;52.956;4.772;2022-07-05T04:18:22;102173.06;;;20.12;100.00
55490;BME280;44029;52.956;4.772;2022-07-05T04:20:47;102159.13;;;20.92;100.00
55490;BME280;44029;52.956;4.772;2022-07-05T04:23:13;102155.25;;;21.62;100.00
55490;BME280;44029;52.956;4.772;2022-07-05T04:25:38;102157.69;;;22.22;100.00
55490;BME280;44029;52.956;4.772;2022-07-05T04:28:04;102169.44;;;22.19;100.00
55490;BME280;44029;52.956;4.772;2022-07-05T04:30:29;102169.03;;;20.54;100.00
55490;BME280;44029;52.956;4.772;2022-07-05T04:32:54;102167.31;;;19.62;100.00
55490;BME280;44029;52.956;4.772;2022-07-05T04:35:21;102167.00;;;19.84;100.00
55490;BME280;44029;52.956;4.772;2022-07-05T04:37:46;102171.19;;;19.86;100.00
55490;BME280;44029;52.956;4.772;2022-07-05T04:40:13;102165.94;;;19.49;100.00
55490;BME280;44029;52.956;4.772;2022-07-05T04:42:39;102171.75;;;19.58;100.00
55490;BME280;44029;52.956;4.772;2022-07-05T04:45:05;102176.91;;;20.36;100.00
55490;BME280;44029;52.956;4.772;2022-07-05T04:47:31;102173.31;;;20.25;100.00
55490;BME280;44029;52.956;4.772;2022-07-05T04:49:57;102176.31;;;20.39;100.00
55490;BME280;44029;52.956;4.772;2022-07-05T04:52:23;102176.75;;;19.61;100.00
55490;BME280;44029;52.956;4.772;2022-07-05T04:54:49;102180.06;;;19.99;100.00
55490;BME280;44029;52.956;4.772;2022-07-05T04:57:14;102182.75;;;20.30;100.00
55490;BME280;44029;52.956;4.772;2022-07-05T04:59:39;102176.28;;;20.55;100.00
55490;BME280;44029;52.956;4.772;2022-07-05T05:02:05;102184.09;;;20.53;100.00
55490;BME280;44029;52.956;4.772;2022-07-05T05:04:30;102189.84;;;19.86;100.00
55490;BME280;44029;52.956;4.772;2022-07-05T05:06:55;102185.91;;;19.66;100.00
55490;BME280;44029;52.956;4.772;2022-07-05T05:09:21;102183.69;;;19.99;100.00
55490;BME280;44029;52.956;4.772;2022-07-05T05:11:47;102191.91;;;20.40;100.00
55490;BME280;44029;52.956;4.772;2022-07-05T05:14:12;102196.31;;;20.57;100.00
55490;BME280;44029;52.956;4.772;2022-07-05T05:16:37;102194.09;;;20.64;100.00
55490;BME280;44029;52.956;4.772;2022-07-05T05:19:03;102198.38;;;20.15;100.00
55490;BME280;44029;52.956;4.772;2022-07-05T05:21:28;102198.97;;;20.07;100.00
55490;BME280;44029;52.956;4.772;2022-07-05T05:23:53;102198.41;;;20.00;100.00
55490;BME280;44029;52.956;4.772;2022-07-05T05:26:19;102202.34;;;19.88;100.00
55490;BME280;44029;52.956;4.772;2022-07-05T05:28:44;102213.44;;;19.68;100.00
55490;BME280;44029;52.956;4.772;2022-07-05T05:31:10;102208.16;;;19.61;100.00
55490;BME280;44029;52.956;4.772;2022-07-05T05:33:35;102214.84;;;19.60;100.00
55490;BME280;44029;52.956;4.772;2022-07-05T05:36:01;102208.16;;;19.61;100.00
55490;BME280;44029;52.956;4.772;2022-07-05T05:38:26;102219.03;;;19.78;100.00
55490;BME280;44029;52.956;4.772;2022-07-05T05:40:52;102218.47;;;19.81;100.00
55490;BME280;44029;52.956;4.772;2022-07-05T05:43:17;102212.59;;;20.08;100.00
55490;BME280;44029;52.956;4.772;2022-07-05T05:45:43;102219.28;;;20.07;100.00
55490;BME280;44029;52.956;4.772;2022-07-05T05:48:08;102215.63;;;20.27;100.00
55490;BME280;44029;52.956;4.772;2022-07-05T05:50:36;102225.53;;;20.59;100.00
55490;BME280;44029;52.956;4.772;2022-07-05T05:53:02;102224.66;;;20.69;100.00
55490;BME280;44029;52.956;4.772;2022-07-05T05:55:29;102218.22;;;20.84;100.00
55490;BME280;44029;52.956;4.772;2022-07-05T05:57:55;102212.00;;;21.47;100.00
55490;BME280;44029;52.956;4.772;2022-07-05T06:00:22;102219.22;;;22.84;100.00
55490;BME280;44029;52.956;4.772;2022-07-05T06:02:48;102210.41;;;23.34;100.00
55490;BME280;44029;52.956;4.772;2022-07-05T06:05:15;102218.38;;;23.60;100.00
55490;BME280;44029;52.956;4.772;2022-07-05T06:07:52;102220.53;;;23.11;100.00
55490;BME280;44029;52.956;4.772;2022-07-05T06:10:26;102226.38;;;22.71;100.00
55490;BME280;44029;52.956;4.772;2022-07-05T06:12:52;102230.75;;;22.00;100.00
55490;BME280;44029;52.956;4.772;2022-07-05T06:15:19;102228.19;;;21.45;100.00
55490;BME280;44029;52.956;4.772;2022-07-05T06:17:45;102239.38;;;21.35;100.00
55490;BME280;44029;52.956;4.772;2022-07-05T06:20:12;102238.47;;;21.45;100.00
55490;BME280;44029;52.956;4.772;2022-07-05T06:22:38;102240.13;;;21.01;100.00
55490;BME280;44029;52.956;4.772;2022-07-05T06:25:04;102241.25;;;21.84;100.00
55490;BME280;44029;52.956;4.772;2022-07-05T06:27:30;102229.88;;;23.58;100.00
55490;BME280;44029;52.956;4.772;2022-07-05T06:29:55;102222.22;;;23.83;100.00
55490;BME280;44029;52.956;4.772;2022-07-05T06:32:21;102217.38;;;24.99;100.00
55490;BME280;44029;52.956;4.772;2022-07-05T06:34:47;102230.38;;;24.95;100.00
55490;BME280;44029;52.956;4.772;2022-07-05T06:37:12;102227.84;;;25.44;100.00
55490;BME280;44029;52.956;4.772;2022-07-05T06:39:37;102231.88;;;25.15;100.00
55490;BME280;44029;52.956;4.772;2022-07-05T06:42:03;102228.63;;;25.36;100.00
55490;BME280;44029;52.956;4.772;2022-07-05T06:44:28;102231.22;;;24.82;100.00
55490;BME280;44029;52.956;4.772;2022-07-05T06:46:54;102234.47;;;22.49;100.00
55490;BME280;44029;52.956;4.772;2022-07-05T06:49:19;102238.06;;;24.34;100.00
55490;BME280;44029;52.956;4.772;2022-07-05T06:51:44;102242.50;;;24.21;100.00
55490;BME280;44029;52.956;4.772;2022-07-05T06:54:10;102237.00;;;23.31;100.00
55490;BME280;44029;52.956;4.772;2022-07-05T06:56:35;102237.81;;;22.94;100.00
55490;BME280;44029;52.956;4.772;2022-07-05T06:59:00;102242.94;;;24.28;100.00
55490;BME280;44029;52.956;4.772;2022-07-05T07:01:26;102232.97;;;25.64;100.00
55490;BME280;44029;52.956;4.772;2022-07-05T07:03:51;102239.97;;;26.30;100.00
55490;BME280;44029;52.956;4.772;2022-07-05T07:06:16;102242.41;;;25.69;100.00
55490;BME280;44029;52.956;4.772;2022-07-05T07:08:42;102237.38;;;25.34;100.00
55490;BME280;44029;52.956;4.772;2022-07-05T07:11:26;102255.91;;;24.80;100.00
55490;BME280;44029;52.956;4.772;2022-07-05T07:13:52;102252.59;;;25.87;100.00
55490;BME280;44029;52.956;4.772;2022-07-05T07:16:17;102248.88;;;26.63;99.01
55490;BME280;44029;52.956;4.772;2022-07-05T07:18:42;102241.44;;;25.96;99.40
55490;BME280;44029;52.956;4.772;2022-07-05T07:21:08;102245.22;;;25.91;100.00
55490;BME280;44029;52.956;4.772;2022-07-05T07:23:33;102248.75;;;26.37;100.00
55490;BME280;44029;52.956;4.772;2022-07-05T07:25:58;102239.13;;;26.29;98.29
55490;BME280;44029;52.956;4.772;2022-07-05T07:28:24;102247.31;;;26.88;95.71
55490;BME280;44029;52.956;4.772;2022-07-05T07:30:49;102249.00;;;27.15;92.86
55490;BME280;44029;52.956;4.772;2022-07-05T07:33:14;102246.75;;;26.60;94.16
55490;BME280;44029;52.956;4.772;2022-07-05T07:35:40;102257.22;;;26.86;95.76
55490;BME280;44029;52.956;4.772;2022-07-05T07:38:05;102254.00;;;26.61;96.67
55490;BME280;44029;52.956;4.772;2022-07-05T07:40:30;102247.03;;;27.25;94.28
55490;BME280;44029;52.956;4.772;2022-07-05T07:42:56;102253.66;;;27.46;91.04
55490;BME280;44029;52.956;4.772;2022-07-05T07:45:21;102259.19;;;26.76;94.24
55490;BME280;44029;52.956;4.772;2022-07-05T07:47:46;102262.03;;;26.14;98.06
55490;BME280;44029;52.956;4.772;2022-07-05T07:50:12;102264.06;;;25.32;100.00
55490;BME280;44029;52.956;4.772;2022-07-05T07:52:37;102270.03;;;24.88;100.00
55490;BME280;44029;52.956;4.772;2022-07-05T07:55:04;102278.63;;;24.37;100.00
55490;BME280;44029;52.956;4.772;2022-07-05T07:57:30;102280.94;;;24.02;100.00
55490;BME280;44029;52.956;4.772;2022-07-05T07:59:55;102282.28;;;24.51;100.00
55490;BME280;44029;52.956;4.772;2022-07-05T08:02:21;102268.16;;;24.98;100.00
55490;BME280;44029;52.956;4.772;2022-07-05T08:04:48;102270.75;;;25.08;100.00
55490;BME280;44029;52.956;4.772;2022-07-05T08:07:14;102273.84;;;25.57;100.00
55490;BME280;44029;52.956;4.772;2022-07-05T08:09:39;102280.22;;;26.48;99.97
55490;BME280;44029;52.956;4.772;2022-07-05T08:12:05;102282.59;;;26.63;98.48
55490;BME280;44029;52.956;4.772;2022-07-05T08:14:31;102278.91;;;26.54;95.90
55490;BME280;44029;52.956;4.772;2022-07-05T08:16:57;102286.66;;;26.88;94.17
55490;BME280;44029;52.956;4.772;2022-07-05T08:19:23;102276.81;;;27.26;90.69
55490;BME280;44029;52.956;4.772;2022-07-05T08:22:07;102281.22;;;26.52;95.51
55490;BME280;44029;52.956;4.772;2022-07-05T08:24:34;102275.91;;;26.41;95.45
55490;BME280;44029;52.956;4.772;2022-07-05T08:26:59;102275.66;;;26.29;96.57
55490;BME280;44029;52.956;4.772;2022-07-05T08:29:25;102285.19;;;26.51;94.53
55490;BME280;44029;52.956;4.772;2022-07-05T08:31:51;102286.91;;;26.29;93.19
55490;BME280;44029;52.956;4.772;2022-07-05T08:34:17;102281.06;;;25.94;96.40
55490;BME280;44029;52.956;4.772;2022-07-05T08:36:46;102287.81;;;25.48;98.73
55490;BME280;44029;52.956;4.772;2022-07-05T08:39:12;102285.53;;;25.73;100.00
55490;BME280;44029;52.956;4.772;2022-07-05T08:41:40;102297.63;;;25.09;100.00
55490;BME280;44029;52.956;4.772;2022-07-05T08:44:06;102300.31;;;25.64;100.00
55490;BME280;44029;52.956;4.772;2022-07-05T08:46:33;102305.13;;;26.40;100.00
55490;BME280;44029;52.956;4.772;2022-07-05T08:49:00;102298.06;;;24.88;100.00
55490;BME280;44029;52.956;4.772;2022-07-05T08:51:28;102289.47;;;25.72;100.00
55490;BME280;44029;52.956;4.772;2022-07-05T08:53:54;102306.47;;;26.12;98.33
55490;BME280;44029;52.956;4.772;2022-07-05T08:56:21;102307.44;;;26.38;99.73
55490;BME280;44029;52.956;4.772;2022-07-05T08:58:46;102298.38;;;26.81;97.93
55490;BME280;44029;52.956;4.772;2022-07-05T09:01:12;102299.44;;;25.78;100.00
55490;BME280;44029;52.956;4.772;2022-07-05T09:03:42;102304.41;;;25.58;100.00
55490;BME280;44029;52.956;4.772;2022-07-05T09:06:09;102301.25;;;26.28;100.00
55490;BME280;44029;52.956;4.772;2022-07-05T09:08:40;102306.28;;;26.62;99.97
55490;BME280;44029;52.956;4.772;2022-07-05T09:11:12;102316.75;;;27.45;98.04
55490;BME280;44029;52.956;4.772;2022-07-05T09:13:40;102306.94;;;25.46;100.00
55490;BME280;44029;52.956;4.772;2022-07-05T09:16:06;102331.19;;;23.93;100.00
55490;BME280;44029;52.956;4.772;2022-07-05T09:18:45;102332.28;;;23.16;100.00
55490;BME280;44029;52.956;4.772;2022-07-05T09:21:31;102321.28;;;24.47;100.00
55490;BME280;44029;52.956;4.772;2022-07-05T09:24:04;102310.03;;;25.81;100.00
55490;BME280;44029;52.956;4.772;2022-07-05T09:26:37;102322.50;;;25.52;100.00
55490;BME280;44029;52.956;4.772;2022-07-05T09:31:34;102320.06;;;23.69;100.00
55490;BME280;44029;52.956;4.772;2022-07-05T09:34:10;102322.03;;;23.87;100.00
55490;BME280;44029;52.956;4.772;2022-07-05T09:36:50;102329.75;;;23.39;100.00
55490;BME280;44029;52.956;4.772;2022-07-05T09:39:16;102330.88;;;24.14;100.00
55490;BME280;44029;52.956;4.772;2022-07-05T09:41:42;102332.84;;;23.75;100.00
55490;BME280;44029;52.956;4.772;2022-07-05T09:44:08;102320.16;;;23.83;100.00
55490;BME280;44029;52.956;4.772;2022-07-05T09:46:33;102333.94;;;23.60;100.00
55490;BME280;44029;52.956;4.772;2022-07-05T09:48:59;102337.44;;;24.04;100.00
55490;BME280;44029;52.956;4.772;2022-07-05T09:51:25;102332.47;;;23.25;100.00
55490;BME280;44029;52.956;4.772;2022-07-05T09:53:53;102326.50;;;23.69;100.00
55490;BME280;44029;52.956;4.772;2022-07-05T09:56:18;102328.94;;;23.95;100.00
55490;BME280;44029;52.956;4.772;2022-07-05T09:58:45;102346.41;;;23.87;100.00
55490;BME280;44029;52.956;4.772;2022-07-05T10:01:24;102336.78;;;23.74;100.00
55490;BME280;44029;52.956;4.772;2022-07-05T10:03:57;102341.56;;;23.92;100.00
55490;BME280;44029;52.956;4.772;2022-07-05T10:06:24;102346.44;;;24.20;100.00
55490;BME280;44029;52.956;4.772;2022-07-05T10:08:50;102345.63;;;24.00;100.00
55490;BME280;44029;52.956;4.772;2022-07-05T10:11:17;102360.91;;;23.89;100.00
55490;BME280;44029;52.956;4.772;2022-07-05T10:13:46;102350.34;;;23.86;100.00
55490;BME280;44029;52.956;4.772;2022-07-05T10:16:13;102357.41;;;24.49;100.00
55490;BME280;44029;52.956;4.772;2022-07-05T10:18:40;102354.00;;;24.52;100.00
55490;BME280;44029;52.956;4.772;2022-07-05T10:21:07;102353.44;;;24.97;100.00
55490;BME280;44029;52.956;4.772;2022-07-05T10:23:37;102362.34;;;24.71;100.00
55490;BME280;44029;52.956;4.772;2022-07-05T10:26:04;102364.00;;;24.39;100.00
55490;BME280;44029;52.956;4.772;2022-07-05T10:28:32;102371.97;;;23.99;100.00
55490;BME280;44029;52.956;4.772;2022-07-05T10:30:57;102365.75;;;24.02;100.00
55490;BME280;44029;52.956;4.772;2022-07-05T10:33:24;102364.03;;;23.87;100.00
55490;BME280;44029;52.956;4.772;2022-07-05T10:35:54;102373.13;;;23.79;100.00
55490;BME280;44029;52.956;4.772;2022-07-05T10:38:20;102368.47;;;24.40;100.00
55490;BME280;44029;52.956;4.772;2022-07-05T10:40:50;102373.13;;;24.31;100.00
55490;BME280;44029;52.956;4.772;2022-07-05T10:43:16;102364.41;;;23.81;100.00
55490;BME280;44029;52.956;4.772;2022-07-05T10:45:49;102368.59;;;24.16;100.00
55490;BME280;44029;52.956;4.772;2022-07-05T10:53:22;102373.84;;;24.04;100.00
55490;BME280;44029;52.956;4.772;2022-07-05T10:58:17;102368.69;;;23.54;100.00
55490;BME280;44029;52.956;4.772;2022-07-05T11:00:43;102378.44;;;23.76;100.00
55490;BME280;44029;52.956;4.772;2022-07-05T11:06:03;102372.22;;;23.60;100.00
55490;BME280;44029;52.956;4.772;2022-07-05T11:08:30;102373.25;;;24.07;100.00
55490;BME280;44029;52.956;4.772;2022-07-05T11:11:11;102376.63;;;24.23;100.00
55490;BME280;44029;52.956;4.772;2022-07-05T11:13:38;102379.22;;;24.00;100.00
55490;BME280;44029;52.956;4.772;2022-07-05T11:19:05;102379.91;;;23.73;100.00
55490;BME280;44029;52.956;4.772;2022-07-05T11:21:31;102382.38;;;24.12;100.00
55490;BME280;44029;52.956;4.772;2022-07-05T11:26:44;102371.16;;;23.37;100.00
55490;BME280;44029;52.956;4.772;2022-07-05T11:32:11;102382.34;;;23.80;100.00
55490;BME280;44029;52.956;4.772;2022-07-05T11:34:38;102384.28;;;24.17;100.00
55490;BME280;44029;52.956;4.772;2022-07-05T11:39:45;102374.88;;;24.74;100.00
55490;BME280;44029;52.956;4.772;2022-07-05T11:42:19;102386.31;;;24.11;100.00
55490;BME280;44029;52.956;4.772;2022-07-05T11:44:49;102385.06;;;23.85;100.00
55490;BME280;44029;52.956;4.772;2022-07-05T11:47:15;102392.28;;;23.48;100.00
55490;BME280;44029;52.956;4.772;2022-07-05T11:49:41;102397.28;;;23.51;100.00
55490;BME280;44029;52.956;4.772;2022-07-05T11:52:06;102394.38;;;23.99;100.00
55490;BME280;44029;52.956;4.772;2022-07-05T11:54:33;102398.34;;;23.93;100.00
55490;BME280;44029;52.956;4.772;2022-07-05T11:56:59;102390.59;;;23.90;100.00
55490;BME280;44029;52.956;4.772;2022-07-05T11:59:25;102394.59;;;24.03;100.00
55490;BME280;44029;52.956;4.772;2022-07-05T12:01:51;102394.56;;;23.84;100.00
55490;BME280;44029;52.956;4.772;2022-07-05T12:04:21;102396.22;;;23.47;100.00
55490;BME280;44029;52.956;4.772;2022-07-05T12:06:46;102389.16;;;23.30;100.00
55490;BME280;44029;52.956;4.772;2022-07-05T12:09:13;102391.19;;;23.25;100.00
55490;BME280;44029;52.956;4.772;2022-07-05T12:11:39;102392.91;;;23.21;100.00
55490;BME280;44029;52.956;4.772;2022-07-05T12:14:23;102393.50;;;23.18;100.00
55490;BME280;44029;52.956;4.772;2022-07-05T12:17:16;102396.19;;;23.04;100.00
55490;BME280;44029;52.956;4.772;2022-07-05T12:19:41;102383.13;;;22.94;100.00
55490;BME280;44029;52.956;4.772;2022-07-05T12:22:07;102378.16;;;22.62;100.00
55490;BME280;44029;52.956;4.772;2022-07-05T12:24:33;102379.97;;;22.47;100.00
55490;BME280;44029;52.956;4.772;2022-07-05T12:26:58;102379.59;;;22.59;100.00
55490;BME280;44029;52.956;4.772;2022-07-05T12:29:24;102379.81;;;22.63;100.00
55490;BME280;44029;52.956;4.772;2022-07-05T12:32:08;102383.19;;;22.89;100.00
55490;BME280;44029;52.956;4.772;2022-07-05T12:34:36;102383.78;;;22.86;100.00
55490;BME280;44029;52.956;4.772;2022-07-05T12:37:01;102382.06;;;22.90;100.00
55490;BME280;44029;52.956;4.772;2022-07-05T12:39:27;102386.34;;;22.53;100.00
55490;BME280;44029;52.956;4.772;2022-07-05T12:41:53;102372.94;;;22.55;100.00
55490;BME280;44029;52.956;4.772;2022-07-05T12:44:20;102384.44;;;22.48;100.00
55490;BME280;44029;52.956;4.772;2022-07-05T12:46:47;102387.34;;;22.91;100.00
55490;BME280;44029;52.956;4.772;2022-07-05T12:49:15;102389.50;;;23.24;100.00
55490;BME280;44029;52.956;4.772;2022-07-05T12:51:41;102393.03;;;22.81;100.00
55490;BME280;44029;52.956;4.772;2022-07-05T12:54:09;102390.69;;;22.35;100.00
55490;BME280;44029;52.956;4.772;2022-07-05T12:57:01;102392.84;;;22.09;100.00
55490;BME280;44029;52.956;4.772;2022-07-05T13:00:07;102395.09;;;22.07;100.00
55490;BME280;44029;52.956;4.772;2022-07-05T13:02:40;102403.91;;;21.79;100.00
55490;BME280;44029;52.956;4.772;2022-07-05T13:05:19;102408.53;;;21.50;100.00